createdAt,value
2022-09-25T00:00:55.186Z,0.00
2022-09-25T00:01:55.278Z,0.00
2022-09-25T00:02:55.263Z,0.00
2022-09-25T00:03:55.143Z,0.00
2022-09-25T00:04:55.141Z,0.00
2022-09-25T00:05:55.115Z,0.00
2022-09-25T00:06:55.122Z,0.00
2022-09-25T00:07:55.120Z,0.00
2022-09-25T00:08:55.096Z,0.00
2022-09-25T00:09:55.077Z,0.00
2022-09-25T00:10:55.075Z,0.00
2022-09-25T00:11:55.046Z,0.00
2022-09-25T00:12:55.057Z,0.00
2022-09-25T00:13:55.034Z,0.00
2022-09-25T00:14:55.026Z,0.00
2022-09-25T00:15:55.016Z,0.00
2022-09-25T00:16:55.041Z,0.00
2022-09-25T00:17:54.963Z,0.00
2022-09-25T00:18:54.995Z,0.00
2022-09-25T00:19:54.933Z,0.00
2022-09-25T00:20:54.942Z,0.00
2022-09-25T00:21:54.940Z,0.00
2022-09-25T00:22:54.911Z,0.00
2022-09-25T00:23:54.915Z,0.00
2022-09-25T00:24:54.883Z,0.00
2022-09-25T00:25:54.889Z,0.00
2022-09-25T00:26:54.876Z,0.00
2022-09-25T00:27:54.865Z,0.00
2022-09-25T00:28:54.867Z,0.00
2022-09-25T00:29:54.824Z,0.00
2022-09-25T00:30:54.885Z,0.00
2022-09-25T00:31:54.824Z,0.00
2022-09-25T00:32:54.785Z,0.00
2022-09-25T00:33:54.798Z,0.00
2022-09-25T00:34:54.791Z,0.00
2022-09-25T00:35:54.769Z,0.00
2022-09-25T00:36:54.744Z,0.00
2022-09-25T00:37:54.741Z,0.00
2022-09-25T00:38:54.729Z,0.00
2022-09-25T00:39:54.726Z,0.00
2022-09-25T00:40:54.732Z,0.00
2022-09-25T00:41:54.707Z,0.00
2022-09-25T00:42:54.688Z,0.00
2022-09-25T00:43:54.677Z,0.00
2022-09-25T00:44:54.705Z,0.00
2022-09-25T00:45:54.795Z,0.00
2022-09-25T00:46:54.633Z,0.00
2022-09-25T00:47:54.626Z,0.00
2022-09-25T00:48:54.614Z,0.00
2022-09-25T00:49:54.598Z,0.00
2022-09-25T00:50:54.603Z,0.00
2022-09-25T00:51:55.168Z,0.00
2022-09-25T00:52:54.573Z,0.00
2022-09-25T00:53:54.567Z,0.00
2022-09-25T00:54:54.569Z,0.00
2022-09-25T00:55:54.569Z,0.00
2022-09-25T00:56:54.522Z,0.00
2022-09-25T00:57:54.522Z,0.00
2022-09-25T00:58:54.537Z,0.00
2022-09-25T00:59:54.508Z,0.00
2022-09-25T01:00:54.536Z,0.00
2022-09-25T01:01:54.478Z,0.00
2022-09-25T01:02:54.499Z,0.00
2022-09-25T01:03:54.447Z,0.00
2022-09-25T01:04:54.439Z,0.00
2022-09-25T01:05:54.415Z,0.00
2022-09-25T01:06:54.405Z,0.00
2022-09-25T01:07:54.389Z,0.00
2022-09-25T01:08:54.379Z,0.00
2022-09-25T01:09:54.371Z,0.00
2022-09-25T01:10:54.370Z,0.00
2022-09-25T01:11:54.369Z,0.00
2022-09-25T01:12:54.396Z,0.00
2022-09-25T01:13:54.320Z,0.00
2022-09-25T01:14:54.308Z,0.00
2022-09-25T01:15:54.303Z,0.00
2022-09-25T01:16:54.444Z,0.00
2022-09-25T01:17:54.294Z,0.00
2022-09-25T01:18:54.269Z,0.00
2022-09-25T01:19:54.265Z,0.00
2022-09-25T01:20:54.253Z,0.00
2022-09-25T01:21:54.247Z,0.00
2022-09-25T01:22:54.226Z,0.00
2022-09-25T01:23:54.237Z,0.00
2022-09-25T01:24:54.200Z,0.00
2022-09-25T01:25:54.191Z,0.00
2022-09-25T01:26:54.181Z,0.00
2022-09-25T01:27:54.171Z,0.00
2022-09-25T01:28:54.140Z,0.00
2022-09-25T01:29:54.137Z,0.00
2022-09-25T01:30:54.160Z,0.00
2022-09-25T01:31:54.121Z,0.00
2022-09-25T01:32:54.129Z,0.00
2022-09-25T01:33:54.093Z,0.00
2022-09-25T01:34:54.085Z,0.00
2022-09-25T01:35:54.071Z,0.00
2022-09-25T01:36:54.060Z,0.00
2022-09-25T01:37:54.072Z,0.00
2022-09-25T01:38:54.038Z,0.00
2022-09-25T01:39:54.031Z,0.00
2022-09-25T01:40:54.128Z,0.00
2022-09-25T01:41:54.003Z,0.00
2022-09-25T01:42:54.004Z,0.00
2022-09-25T01:43:53.980Z,0.00
2022-09-25T01:44:53.973Z,0.00
2022-09-25T01:45:54.016Z,0.00
2022-09-25T01:46:53.929Z,0.00
2022-09-25T01:47:53.930Z,0.00
2022-09-25T01:48:53.936Z,0.00
2022-09-25T01:49:53.915Z,0.00
2022-09-25T01:50:53.903Z,0.00
2022-09-25T01:51:55.868Z,0.00
2022-09-25T01:52:53.880Z,0.00
2022-09-25T01:53:53.868Z,0.00
2022-09-25T01:54:53.864Z,0.00
2022-09-25T01:55:53.844Z,0.00
2022-09-25T01:56:53.825Z,0.00
2022-09-25T01:57:53.826Z,0.00
2022-09-25T01:58:53.801Z,0.00
2022-09-25T01:59:53.810Z,0.00
2022-09-25T02:00:53.793Z,0.00
2022-09-25T02:01:53.828Z,0.00
2022-09-25T02:02:53.807Z,0.00
2022-09-25T02:03:53.752Z,0.00
2022-09-25T02:04:53.752Z,0.00
2022-09-25T02:05:53.725Z,0.00
2022-09-25T02:06:53.707Z,0.00
2022-09-25T02:07:53.695Z,0.00
2022-09-25T02:08:53.690Z,0.00
2022-09-25T02:09:53.675Z,0.00
2022-09-25T02:10:53.687Z,0.00
2022-09-25T02:11:53.654Z,0.00
2022-09-25T02:12:53.638Z,0.00
2022-09-25T02:13:53.651Z,0.00
2022-09-25T02:14:53.606Z,0.00
2022-09-25T02:15:53.626Z,0.00
2022-09-25T02:16:53.627Z,0.00
2022-09-25T02:17:53.589Z,0.00
2022-09-25T02:18:53.579Z,0.00
2022-09-25T02:19:53.563Z,0.00
2022-09-25T02:20:53.571Z,0.00
2022-09-25T02:21:53.538Z,0.00
2022-09-25T02:22:53.529Z,0.00
2022-09-25T02:23:53.529Z,0.00
2022-09-25T02:24:58.491Z,0.00
2022-09-25T02:25:54.517Z,0.00
2022-09-25T02:26:53.495Z,0.00
2022-09-25T02:27:53.481Z,0.00
2022-09-25T02:28:53.465Z,0.00
2022-09-25T02:29:53.459Z,0.00
2022-09-25T02:30:53.510Z,0.00
2022-09-25T02:31:53.438Z,0.00
2022-09-25T02:32:53.412Z,0.00
2022-09-25T02:33:53.407Z,0.00
2022-09-25T02:34:53.387Z,0.00
2022-09-25T02:35:53.394Z,0.00
2022-09-25T02:36:53.397Z,0.00
2022-09-25T02:37:53.363Z,0.00
2022-09-25T02:38:53.370Z,0.00
2022-09-25T02:39:53.344Z,0.00
2022-09-25T02:40:53.407Z,0.00
2022-09-25T02:41:53.334Z,0.00
2022-09-25T02:42:53.310Z,0.00
2022-09-25T02:43:53.287Z,0.00
2022-09-25T02:44:53.282Z,0.00
2022-09-25T02:45:53.333Z,0.00
2022-09-25T02:46:53.278Z,0.00
2022-09-25T02:47:53.242Z,0.00
2022-09-25T02:48:53.243Z,0.00
2022-09-25T02:49:53.221Z,0.00
2022-09-25T02:50:53.210Z,0.00
2022-09-25T02:51:53.199Z,0.00
2022-09-25T02:52:53.208Z,0.00
2022-09-25T02:53:53.179Z,0.00
2022-09-25T02:54:53.152Z,0.00
2022-09-25T02:55:53.150Z,0.00
2022-09-25T02:56:53.138Z,0.00
2022-09-25T02:57:53.146Z,0.00
2022-09-25T02:58:53.137Z,0.00
2022-09-25T02:59:53.112Z,0.00
2022-09-25T03:00:53.164Z,0.00
2022-09-25T03:01:53.257Z,0.00
2022-09-25T03:02:53.145Z,0.00
2022-09-25T03:03:53.092Z,0.00
2022-09-25T03:04:53.081Z,0.00
2022-09-25T03:05:53.021Z,0.00
2022-09-25T03:06:53.024Z,0.00
2022-09-25T03:07:53.017Z,0.00
2022-09-25T03:08:53.022Z,0.00
2022-09-25T03:09:52.989Z,0.00
2022-09-25T03:10:52.973Z,0.00
2022-09-25T03:11:52.981Z,0.00
2022-09-25T03:12:52.963Z,0.00
2022-09-25T03:13:52.962Z,0.00
2022-09-25T03:14:52.945Z,0.00
2022-09-25T03:15:52.922Z,0.00
2022-09-25T03:16:52.948Z,0.00
2022-09-25T03:17:52.904Z,0.00
2022-09-25T03:18:52.899Z,0.00
2022-09-25T03:19:52.872Z,0.00
2022-09-25T03:20:52.860Z,0.00
2022-09-25T03:21:52.856Z,0.00
2022-09-25T03:22:52.850Z,0.00
2022-09-25T03:23:52.836Z,0.00
2022-09-25T03:24:52.817Z,0.00
2022-09-25T03:25:52.826Z,0.00
2022-09-25T03:26:52.787Z,0.00
2022-09-25T03:27:52.784Z,0.00
2022-09-25T03:28:52.807Z,0.00
2022-09-25T03:29:52.765Z,0.00
2022-09-25T03:30:52.878Z,0.00
2022-09-25T03:31:52.755Z,0.00
2022-09-25T03:32:52.725Z,0.00
2022-09-25T03:33:52.774Z,0.00
2022-09-25T03:34:52.704Z,0.00
2022-09-25T03:35:52.691Z,0.00
2022-09-25T03:36:52.681Z,0.00
2022-09-25T03:37:52.685Z,0.00
2022-09-25T03:38:52.669Z,0.00
2022-09-25T03:39:52.645Z,0.00
2022-09-25T03:40:52.690Z,0.00
2022-09-25T03:41:52.642Z,0.00
2022-09-25T03:42:52.637Z,0.00
2022-09-25T03:43:52.627Z,0.00
2022-09-25T03:44:52.585Z,0.00
2022-09-25T03:45:52.664Z,0.00
2022-09-25T03:46:52.557Z,0.00
2022-09-25T03:47:52.558Z,0.00
2022-09-25T03:48:52.579Z,0.00
2022-09-25T03:49:52.538Z,0.00
2022-09-25T03:50:52.508Z,0.00
2022-09-25T03:51:52.505Z,0.00
2022-09-25T03:52:52.497Z,0.00
2022-09-25T03:53:52.512Z,0.00
2022-09-25T03:54:52.460Z,0.00
2022-09-25T03:55:52.461Z,0.00
2022-09-25T03:56:52.442Z,0.00
2022-09-25T03:57:52.436Z,0.00
2022-09-25T03:58:52.452Z,0.00
2022-09-25T03:59:52.422Z,0.00
2022-09-25T04:00:52.400Z,0.00
2022-09-25T04:01:52.456Z,0.00
2022-09-25T04:02:52.438Z,0.00
2022-09-25T04:03:52.372Z,0.00
2022-09-25T04:04:52.391Z,0.00
2022-09-25T04:05:52.342Z,0.00
2022-09-25T04:06:52.329Z,0.00
2022-09-25T04:07:52.331Z,0.00
2022-09-25T04:08:52.318Z,0.00
2022-09-25T04:09:52.320Z,0.00
2022-09-25T04:10:52.290Z,0.00
2022-09-25T04:11:52.276Z,0.00
2022-09-25T04:12:52.283Z,0.00
2022-09-25T04:13:52.250Z,0.00
2022-09-25T04:14:52.278Z,0.00
2022-09-25T04:15:52.275Z,0.00
2022-09-25T04:16:52.293Z,0.00
2022-09-25T04:17:52.199Z,0.00
2022-09-25T04:18:52.187Z,0.00
2022-09-25T04:19:52.192Z,0.00
2022-09-25T04:20:52.174Z,0.00
2022-09-25T04:21:52.170Z,0.00
2022-09-25T04:22:52.171Z,0.00
2022-09-25T04:23:52.157Z,0.00
2022-09-25T04:24:52.119Z,0.00
2022-09-25T04:25:52.112Z,0.00
2022-09-25T04:26:52.103Z,0.00
2022-09-25T04:27:52.115Z,0.00
2022-09-25T04:28:52.091Z,0.00
2022-09-25T04:29:52.061Z,0.00
2022-09-25T04:30:52.051Z,0.00
2022-09-25T04:31:52.086Z,0.00
2022-09-25T04:32:52.038Z,0.00
2022-09-25T04:33:52.038Z,0.00
2022-09-25T04:34:52.018Z,0.00
2022-09-25T04:35:51.991Z,0.00
2022-09-25T04:36:51.982Z,0.00
2022-09-25T04:37:51.990Z,0.00
2022-09-25T04:38:51.968Z,0.00
2022-09-25T04:39:51.976Z,0.00
2022-09-25T04:40:52.040Z,0.00
2022-09-25T04:41:51.933Z,0.00
2022-09-25T04:42:51.917Z,0.00
2022-09-25T04:43:51.917Z,0.00
2022-09-25T04:44:51.916Z,0.00
2022-09-25T04:45:51.970Z,0.00
2022-09-25T04:46:51.941Z,0.00
2022-09-25T04:47:51.867Z,0.00
2022-09-25T04:48:51.845Z,0.00
2022-09-25T04:49:51.859Z,0.00
2022-09-25T04:50:51.825Z,0.00
2022-09-25T04:51:51.822Z,0.00
2022-09-25T04:52:51.795Z,0.00
2022-09-25T04:53:51.791Z,0.00
2022-09-25T04:54:51.798Z,0.00
2022-09-25T04:55:51.779Z,0.00
2022-09-25T04:56:51.756Z,0.00
2022-09-25T04:57:58.784Z,0.00
2022-09-25T04:58:52.727Z,0.00
2022-09-25T04:59:51.747Z,0.00
2022-09-25T05:00:51.766Z,0.00
2022-09-25T05:01:51.814Z,0.00
2022-09-25T05:02:51.761Z,0.00
2022-09-25T05:03:51.718Z,0.00
2022-09-25T05:04:51.671Z,0.00
2022-09-25T05:05:51.660Z,0.00
2022-09-25T05:06:51.665Z,0.00
2022-09-25T05:07:51.619Z,0.00
2022-09-25T05:08:51.626Z,0.00
2022-09-25T05:09:51.606Z,0.00
2022-09-25T05:10:51.590Z,0.00
2022-09-25T05:11:51.595Z,0.00
2022-09-25T05:12:51.570Z,0.00
2022-09-25T05:13:51.642Z,0.00
2022-09-25T05:14:51.543Z,0.00
2022-09-25T05:15:51.576Z,0.00
2022-09-25T05:16:51.547Z,0.00
2022-09-25T05:17:51.524Z,0.00
2022-09-25T05:18:51.510Z,4.00
2022-09-25T05:19:51.497Z,4.00
2022-09-25T05:20:51.477Z,4.00
2022-09-25T05:21:51.463Z,4.00
2022-09-25T05:22:51.470Z,4.00
2022-09-25T05:23:51.459Z,4.00
2022-09-25T05:24:54.148Z,4.00
2022-09-25T05:25:52.431Z,4.00
2022-09-25T05:26:51.541Z,4.00
2022-09-25T05:27:51.408Z,0.00
2022-09-25T05:28:51.397Z,4.00
2022-09-25T05:29:51.371Z,4.00
2022-09-25T05:30:51.372Z,8.00
2022-09-25T05:31:51.410Z,8.00
2022-09-25T05:32:51.351Z,8.00
2022-09-25T05:33:51.340Z,4.00
2022-09-25T05:34:51.330Z,8.00
2022-09-25T05:35:51.314Z,4.00
2022-09-25T05:36:51.361Z,4.00
2022-09-25T05:37:51.347Z,4.00
2022-09-25T05:38:51.290Z,4.00
2022-09-25T05:39:51.261Z,8.00
2022-09-25T05:40:51.345Z,8.00
2022-09-25T05:41:51.238Z,8.00
2022-09-25T05:42:51.222Z,12.00
2022-09-25T05:43:51.232Z,12.00
2022-09-25T05:44:51.216Z,16.00
2022-09-25T05:45:51.231Z,16.00
2022-09-25T05:46:51.185Z,16.00
2022-09-25T05:47:51.180Z,20.00
2022-09-25T05:48:51.186Z,16.00
2022-09-25T05:49:51.142Z,16.00
2022-09-25T05:50:51.143Z,16.00
2022-09-25T05:51:51.131Z,16.00
2022-09-25T05:52:51.112Z,16.00
2022-09-25T05:53:51.114Z,12.00
2022-09-25T05:54:51.104Z,12.00
2022-09-25T05:55:51.084Z,16.00
2022-09-25T05:56:51.069Z,16.00
2022-09-25T05:57:51.054Z,12.00
2022-09-25T05:58:51.046Z,16.00
2022-09-25T05:59:51.052Z,20.00
2022-09-25T06:00:51.022Z,16.00
2022-09-25T06:01:51.110Z,20.00
2022-09-25T06:02:51.054Z,16.00
2022-09-25T06:03:51.013Z,20.00
2022-09-25T06:04:50.998Z,20.00
2022-09-25T06:05:50.971Z,20.00
2022-09-25T06:06:50.963Z,24.00
2022-09-25T06:07:50.954Z,24.00
2022-09-25T06:08:50.946Z,32.00
2022-09-25T06:09:50.928Z,28.00
2022-09-25T06:10:50.974Z,24.00
2022-09-25T06:11:50.901Z,24.00
2022-09-25T06:12:50.883Z,24.00
2022-09-25T06:13:54.525Z,28.00
2022-09-25T06:14:50.879Z,32.00
2022-09-25T06:15:50.968Z,40.00
2022-09-25T06:16:50.873Z,40.00
2022-09-25T06:17:50.845Z,48.00
2022-09-25T06:18:50.816Z,48.00
2022-09-25T06:19:50.816Z,64.00
2022-09-25T06:20:50.795Z,68.00
2022-09-25T06:21:50.832Z,72.00
2022-09-25T06:22:50.778Z,76.00
2022-09-25T06:23:50.808Z,84.00
2022-09-25T06:24:50.745Z,84.00
2022-09-25T06:25:50.750Z,92.00
2022-09-25T06:26:50.787Z,100.00
2022-09-25T06:27:50.706Z,112.00
2022-09-25T06:28:50.707Z,116.00
2022-09-25T06:29:50.696Z,120.00
2022-09-25T06:30:50.736Z,128.00
2022-09-25T06:31:50.694Z,124.00
2022-09-25T06:32:50.661Z,132.00
2022-09-25T06:33:50.639Z,140.00
2022-09-25T06:34:50.635Z,148.00
2022-09-25T06:35:50.616Z,148.00
2022-09-25T06:36:50.646Z,144.00
2022-09-25T06:37:50.604Z,140.00
2022-09-25T06:38:50.597Z,128.00
2022-09-25T06:39:50.577Z,116.00
2022-09-25T06:40:50.619Z,108.00
2022-09-25T06:41:50.571Z,120.00
2022-09-25T06:42:50.539Z,136.00
2022-09-25T06:43:50.529Z,144.00
2022-09-25T06:44:50.531Z,148.00
2022-09-25T06:45:50.553Z,152.00
2022-09-25T06:46:50.612Z,148.00
2022-09-25T06:47:50.508Z,144.00
2022-09-25T06:48:50.478Z,152.00
2022-09-25T06:49:50.467Z,160.00
2022-09-25T06:50:50.455Z,176.00
2022-09-25T06:51:50.429Z,196.00
2022-09-25T06:52:50.460Z,208.00
2022-09-25T06:53:50.437Z,216.00
2022-09-25T06:54:50.421Z,216.00
2022-09-25T06:55:50.398Z,216.00
2022-09-25T06:56:50.396Z,208.00
2022-09-25T06:57:50.375Z,208.00
2022-09-25T06:58:50.378Z,220.00
2022-09-25T06:59:50.366Z,220.00
2022-09-25T07:00:50.350Z,204.00
2022-09-25T07:01:50.469Z,204.00
2022-09-25T07:02:50.433Z,204.00
2022-09-25T07:03:50.330Z,212.00
2022-09-25T07:04:50.312Z,208.00
2022-09-25T07:05:50.283Z,208.00
2022-09-25T07:06:50.277Z,212.00
2022-09-25T07:07:50.252Z,204.00
2022-09-25T07:08:50.275Z,196.00
2022-09-25T07:09:50.239Z,192.00
2022-09-25T07:10:50.236Z,168.00
2022-09-25T07:11:50.229Z,156.00
2022-09-25T07:12:50.206Z,176.00
2022-09-25T07:13:50.202Z,168.00
2022-09-25T07:14:50.181Z,164.00
2022-09-25T07:15:50.197Z,152.00
2022-09-25T07:16:50.179Z,156.00
2022-09-25T07:17:50.153Z,148.00
2022-09-25T07:18:50.141Z,156.00
2022-09-25T07:19:50.123Z,164.00
2022-09-25T07:20:50.112Z,160.00
2022-09-25T07:21:50.101Z,148.00
2022-09-25T07:22:50.117Z,140.00
2022-09-25T07:23:50.097Z,132.00
2022-09-25T07:24:50.067Z,136.00
2022-09-25T07:25:50.043Z,124.00
2022-09-25T07:26:50.062Z,124.00
2022-09-25T07:27:50.032Z,120.00
2022-09-25T07:28:50.034Z,116.00
2022-09-25T07:29:49.995Z,124.00
2022-09-25T07:30:50.151Z,128.00
2022-09-25T07:31:49.985Z,112.00
2022-09-25T07:32:49.995Z,104.00
2022-09-25T07:33:49.988Z,104.00
2022-09-25T07:34:49.944Z,108.00
2022-09-25T07:35:49.932Z,116.00
2022-09-25T07:36:49.935Z,104.00
2022-09-25T07:37:49.908Z,88.00
2022-09-25T07:38:49.918Z,80.00
2022-09-25T07:39:49.921Z,84.00
2022-09-25T07:40:49.911Z,100.00
2022-09-25T07:41:49.876Z,96.00
2022-09-25T07:42:49.863Z,100.00
2022-09-25T07:43:52.673Z,120.00
2022-09-25T07:44:51.031Z,108.00
2022-09-25T07:45:49.817Z,116.00
2022-09-25T07:46:49.848Z,144.00
2022-09-25T07:47:49.797Z,132.00
2022-09-25T07:48:49.778Z,152.00
2022-09-25T07:49:49.806Z,192.00
2022-09-25T07:50:49.774Z,188.00
2022-09-25T07:51:49.766Z,160.00
2022-09-25T07:52:49.754Z,148.00
2022-09-25T07:53:49.747Z,136.00
2022-09-25T07:54:49.742Z,140.00
2022-09-25T07:55:49.729Z,160.00
2022-09-25T07:56:49.699Z,192.00
2022-09-25T07:57:49.670Z,256.00
2022-09-25T07:58:49.668Z,276.00
2022-09-25T07:59:49.673Z,276.00
2022-09-25T08:00:49.666Z,296.00
2022-09-25T08:01:53.693Z,256.00
2022-09-25T08:02:49.673Z,268.00
2022-09-25T08:03:49.612Z,284.00
2022-09-25T08:04:49.652Z,268.00
2022-09-25T08:05:49.648Z,280.00
2022-09-25T08:06:49.627Z,284.00
2022-09-25T08:07:49.615Z,272.00
2022-09-25T08:08:49.572Z,264.00
2022-09-25T08:09:49.556Z,244.00
2022-09-25T08:10:49.548Z,256.00
2022-09-25T08:11:49.537Z,244.00
2022-09-25T08:12:49.526Z,220.00
2022-09-25T08:13:49.513Z,196.00
2022-09-25T08:14:49.618Z,184.00
2022-09-25T08:15:49.550Z,176.00
2022-09-25T08:16:49.506Z,172.00
2022-09-25T08:17:49.480Z,164.00
2022-09-25T08:18:49.449Z,196.00
2022-09-25T08:19:49.447Z,256.00
2022-09-25T08:20:49.437Z,240.00
2022-09-25T08:21:49.428Z,280.00
2022-09-25T08:22:49.430Z,316.00
2022-09-25T08:23:49.414Z,328.00
2022-09-25T08:24:49.417Z,336.00
2022-09-25T08:25:49.365Z,396.00
2022-09-25T08:26:49.396Z,440.00
2022-09-25T08:27:49.400Z,404.00
2022-09-25T08:28:49.338Z,376.00
2022-09-25T08:29:49.320Z,388.00
2022-09-25T08:30:49.346Z,404.00
2022-09-25T08:31:49.325Z,380.00
2022-09-25T08:32:49.280Z,368.00
2022-09-25T08:33:49.329Z,420.00
2022-09-25T08:34:49.547Z,508.00
2022-09-25T08:35:49.261Z,484.00
2022-09-25T08:36:49.248Z,440.00
2022-09-25T08:37:49.237Z,420.00
2022-09-25T08:38:49.222Z,436.00
2022-09-25T08:39:49.228Z,424.00
2022-09-25T08:40:49.266Z,424.00
2022-09-25T08:41:49.199Z,432.00
2022-09-25T08:42:49.254Z,420.00
2022-09-25T08:43:49.167Z,444.00
2022-09-25T08:45:16.592Z,472.00
2022-09-25T08:45:50.196Z,432.00
2022-09-25T08:46:49.147Z,392.00
2022-09-25T08:47:49.145Z,468.00
2022-09-25T08:48:49.109Z,500.00
2022-09-25T08:49:49.106Z,448.00
2022-09-25T08:50:49.108Z,428.00
2022-09-25T08:51:49.103Z,412.00
2022-09-25T08:52:49.054Z,384.00
2022-09-25T08:53:49.061Z,404.00
2022-09-25T08:54:49.053Z,396.00
2022-09-25T08:55:49.032Z,352.00
2022-09-25T08:56:49.046Z,332.00
2022-09-25T08:57:48.996Z,304.00
2022-09-25T08:58:49.002Z,320.00
2022-09-25T08:59:48.973Z,332.00
2022-09-25T09:00:48.965Z,340.00
2022-09-25T09:01:48.983Z,304.00
2022-09-25T09:02:48.984Z,308.00
2022-09-25T09:03:48.949Z,316.00
2022-09-25T09:04:48.926Z,332.00
2022-09-25T09:05:51.689Z,408.00
2022-09-25T09:06:53.277Z,416.00
2022-09-25T09:07:49.883Z,380.00
2022-09-25T09:08:48.878Z,380.00
2022-09-25T09:09:48.902Z,388.00
2022-09-25T09:10:48.846Z,436.00
2022-09-25T09:11:48.843Z,480.00
2022-09-25T09:12:48.833Z,472.00
2022-09-25T09:13:48.811Z,468.00
2022-09-25T09:14:48.824Z,508.00
2022-09-25T09:15:48.802Z,508.00
2022-09-25T09:16:48.784Z,356.00
2022-09-25T09:17:48.762Z,328.00
2022-09-25T09:18:48.749Z,400.00
2022-09-25T09:19:48.755Z,444.00
2022-09-25T09:20:48.726Z,368.00
2022-09-25T09:21:48.706Z,336.00
2022-09-25T09:22:48.711Z,404.00
2022-09-25T09:23:48.695Z,480.00
2022-09-25T09:24:48.737Z,548.00
2022-09-25T09:25:48.676Z,668.00
2022-09-25T09:26:48.666Z,764.00
2022-09-25T09:27:48.655Z,876.00
2022-09-25T09:28:48.636Z,840.00
2022-09-25T09:29:48.618Z,840.00
2022-09-25T09:30:48.685Z,956.00
2022-09-25T09:31:48.603Z,1024.00
2022-09-25T09:32:48.589Z,1044.00
2022-09-25T09:33:48.588Z,1028.00
2022-09-25T09:35:05.811Z,1044.00
2022-09-25T09:35:49.590Z,1036.00
2022-09-25T09:36:48.574Z,1032.00
2022-09-25T09:37:48.529Z,1052.00
2022-09-25T09:38:48.520Z,1036.00
2022-09-25T09:39:48.498Z,968.00
2022-09-25T09:40:48.574Z,880.00
2022-09-25T09:41:48.481Z,864.00
2022-09-25T09:42:48.466Z,868.00
2022-09-25T09:43:48.463Z,896.00
2022-09-25T09:44:48.450Z,1004.00
2022-09-25T09:45:48.443Z,1104.00
2022-09-25T09:46:48.458Z,1160.00
2022-09-25T09:47:48.413Z,1140.00
2022-09-25T09:48:48.408Z,1084.00
2022-09-25T09:49:48.381Z,992.00
2022-09-25T09:50:52.387Z,936.00
2022-09-25T09:51:48.383Z,980.00
2022-09-25T09:52:48.367Z,1028.00
2022-09-25T09:53:48.372Z,996.00
2022-09-25T09:54:48.349Z,984.00
2022-09-25T09:55:48.329Z,952.00
2022-09-25T09:56:48.317Z,972.00
2022-09-25T09:57:48.321Z,936.00
2022-09-25T09:58:48.309Z,876.00
2022-09-25T09:59:48.271Z,1012.00
2022-09-25T10:00:48.250Z,1076.00
2022-09-25T10:01:48.359Z,1276.00
2022-09-25T10:02:48.343Z,1396.00
2022-09-25T10:03:48.252Z,1472.00
2022-09-25T10:04:48.221Z,1392.00
2022-09-25T10:05:48.201Z,1276.00
2022-09-25T10:06:48.204Z,1124.00
2022-09-25T10:07:48.201Z,1048.00
2022-09-25T10:08:48.183Z,1100.00
2022-09-25T10:09:48.150Z,1156.00
2022-09-25T10:10:48.148Z,1228.00
2022-09-25T10:11:48.133Z,1376.00
2022-09-25T10:12:48.123Z,1512.00
2022-09-25T10:13:48.134Z,1592.00
2022-09-25T10:14:48.114Z,1708.00
2022-09-25T10:15:48.110Z,1852.00
2022-09-25T10:16:48.118Z,1860.00
2022-09-25T10:17:48.070Z,1904.00
2022-09-25T10:18:48.068Z,1980.00
2022-09-25T10:19:48.044Z,1976.00
2022-09-25T10:20:48.025Z,1932.00
2022-09-25T10:21:48.034Z,1828.00
2022-09-25T10:22:47.997Z,1636.00
2022-09-25T10:23:48.037Z,1436.00
2022-09-25T10:24:47.989Z,1392.00
2022-09-25T10:25:51.308Z,1512.00
2022-09-25T10:26:48.965Z,1576.00
2022-09-25T10:27:47.956Z,1532.00
2022-09-25T10:28:47.970Z,1528.00
2022-09-25T10:29:47.936Z,1696.00
2022-09-25T10:30:47.942Z,1844.00
2022-09-25T10:31:47.923Z,1900.00
2022-09-25T10:32:47.891Z,1872.00
2022-09-25T10:33:47.900Z,2128.00
2022-09-25T10:34:47.872Z,2172.00
2022-09-25T10:35:47.864Z,2152.00
2022-09-25T10:36:47.867Z,2048.00
2022-09-25T10:37:47.853Z,1832.00
2022-09-25T10:38:47.837Z,1688.00
2022-09-25T10:39:47.961Z,1792.00
2022-09-25T10:40:47.869Z,1988.00
2022-09-25T10:41:47.798Z,2112.00
2022-09-25T10:42:47.784Z,2132.00
2022-09-25T10:43:47.776Z,2128.00
2022-09-25T10:44:47.777Z,2132.00
2022-09-25T10:45:47.782Z,2088.00
2022-09-25T10:46:47.752Z,2028.00
2022-09-25T10:47:47.735Z,1960.00
2022-09-25T10:48:47.738Z,1844.00
2022-09-25T10:49:47.730Z,1888.00
2022-09-25T10:50:47.707Z,1900.00
2022-09-25T10:51:47.710Z,1864.00
2022-09-25T10:52:47.679Z,1644.00
2022-09-25T10:53:47.671Z,1744.00
2022-09-25T10:54:47.659Z,1768.00
2022-09-25T10:55:47.637Z,1728.00
2022-09-25T10:56:47.631Z,1688.00
2022-09-25T10:57:47.606Z,1588.00
2022-09-25T10:58:47.606Z,1512.00
2022-09-25T10:59:47.630Z,1540.00
2022-09-25T11:00:47.572Z,1548.00
2022-09-25T11:01:47.715Z,1568.00
2022-09-25T11:02:47.645Z,1540.00
2022-09-25T11:03:47.551Z,1448.00
2022-09-25T11:04:47.526Z,1468.00
2022-09-25T11:05:47.544Z,1508.00
2022-09-25T11:06:47.510Z,1472.00
2022-09-25T11:07:47.500Z,1484.00
2022-09-25T11:08:47.490Z,1468.00
2022-09-25T11:09:47.478Z,1476.00
2022-09-25T11:10:47.486Z,1408.00
2022-09-25T11:11:47.475Z,1436.00
2022-09-25T11:12:47.441Z,1444.00
2022-09-25T11:13:47.433Z,1460.00
2022-09-25T11:14:47.433Z,1500.00
2022-09-25T11:15:47.427Z,1520.00
2022-09-25T11:16:47.466Z,1512.00
2022-09-25T11:17:47.408Z,1496.00
2022-09-25T11:18:47.382Z,1440.00
2022-09-25T11:19:47.361Z,1400.00
2022-09-25T11:20:47.341Z,1408.00
2022-09-25T11:21:47.372Z,1320.00
2022-09-25T11:22:47.345Z,1276.00
2022-09-25T11:23:47.343Z,1236.00
2022-09-25T11:24:47.312Z,1228.00
2022-09-25T11:25:47.326Z,1248.00
2022-09-25T11:26:47.302Z,1220.00
2022-09-25T11:27:47.277Z,1240.00
2022-09-25T11:28:47.253Z,1176.00
2022-09-25T11:29:47.256Z,1188.00
2022-09-25T11:30:47.252Z,1128.00
2022-09-25T11:31:47.236Z,1128.00
2022-09-25T11:32:52.240Z,1136.00
2022-09-25T11:33:48.193Z,1116.00
2022-09-25T11:34:47.198Z,1184.00
2022-09-25T11:35:47.185Z,1196.00
2022-09-25T11:36:47.185Z,1180.00
2022-09-25T11:37:47.157Z,1172.00
2022-09-25T11:38:47.140Z,1176.00
2022-09-25T11:39:47.149Z,1180.00
2022-09-25T11:40:47.144Z,1160.00
2022-09-25T11:41:47.140Z,1180.00
2022-09-25T11:42:47.110Z,1180.00
2022-09-25T11:43:47.096Z,1228.00
2022-09-25T11:44:47.084Z,1252.00
2022-09-25T11:45:47.125Z,1240.00
2022-09-25T11:46:47.149Z,1256.00
2022-09-25T11:47:47.065Z,1228.00
2022-09-25T11:48:47.025Z,1200.00
2022-09-25T11:49:47.017Z,1172.00
2022-09-25T11:50:47.006Z,1148.00
2022-09-25T11:51:47.018Z,1120.00
2022-09-25T11:52:47.013Z,1096.00
2022-09-25T11:53:46.976Z,1080.00
2022-09-25T11:54:46.957Z,1068.00
2022-09-25T11:55:46.970Z,1060.00
2022-09-25T11:56:47.007Z,1060.00
2022-09-25T11:57:46.940Z,1072.00
2022-09-25T11:58:46.906Z,1092.00
2022-09-25T11:59:46.907Z,1124.00
2022-09-25T12:00:46.890Z,1160.00
2022-09-25T12:01:46.931Z,1200.00
2022-09-25T12:02:46.897Z,1236.00
2022-09-25T12:03:46.879Z,1272.00
2022-09-25T12:04:46.838Z,1300.00
2022-09-25T12:05:46.839Z,1304.00
2022-09-25T12:06:46.823Z,1324.00
2022-09-25T12:07:46.823Z,1372.00
2022-09-25T12:08:46.811Z,1444.00
2022-09-25T12:09:46.821Z,1448.00
2022-09-25T12:10:46.784Z,1488.00
2022-09-25T12:11:46.776Z,1524.00
2022-09-25T12:12:46.754Z,1564.00
2022-09-25T12:13:46.781Z,1600.00
2022-09-25T12:14:46.778Z,1628.00
2022-09-25T12:15:46.739Z,1640.00
2022-09-25T12:16:46.809Z,1648.00
2022-09-25T12:17:46.711Z,1640.00
2022-09-25T12:18:46.703Z,1632.00
2022-09-25T12:19:46.682Z,1632.00
2022-09-25T12:20:46.683Z,1628.00
2022-09-25T12:21:46.658Z,1628.00
2022-09-25T12:22:46.642Z,1584.00
2022-09-25T12:23:46.631Z,1516.00
2022-09-25T12:24:46.619Z,1536.00
2022-09-25T12:25:46.612Z,1560.00
2022-09-25T12:26:46.620Z,1608.00
2022-09-25T12:27:46.589Z,1516.00
2022-09-25T12:28:46.580Z,1488.00
2022-09-25T12:29:46.588Z,1480.00
2022-09-25T12:30:46.592Z,1488.00
2022-09-25T12:31:46.544Z,1476.00
2022-09-25T12:32:46.552Z,1456.00
2022-09-25T12:33:46.532Z,1440.00
2022-09-25T12:34:46.529Z,1468.00
2022-09-25T12:35:46.541Z,1480.00
2022-09-25T12:36:46.482Z,1488.00
2022-09-25T12:37:46.496Z,1472.00
2022-09-25T12:38:46.463Z,1432.00
2022-09-25T12:39:46.457Z,1356.00
2022-09-25T12:40:46.552Z,1368.00
2022-09-25T12:41:46.450Z,1368.00
2022-09-25T12:42:46.409Z,1360.00
2022-09-25T12:43:46.423Z,1368.00
2022-09-25T12:44:46.387Z,1348.00
2022-09-25T12:45:46.409Z,1280.00